Time;durP1;ratioP1;P1;durP2;ratioP2;P2;SDS_P1;SDS_P2;PMS_P1;PMS_P2;Temp;Humidity;BMP_temperature;BMP_pressure;BME280_temperature;BME280_humidity;BME280_pressure;Samples;Min_cycle;Max_cycle;Signal;HPM_P1;HPM_P2
2021/01/23 00:01:00;;;;;;;;;;;;;;;;;;5071390;28;20003;-66
2021/01/23 00:03:27;;;;;;;;;;;;;;;;;;5077764;28;20026;-66
2021/01/23 00:05:54;;;;;;;;;;;;;;;;;;5068989;28;19924;-67
2021/01/23 00:08:20;;;;;;;;;;;;;;;;;;5073480;28;20377;-65
2021/01/23 00:10:46;;;;;;;;;;;;;;;;;;5065405;28;19929;-66
2021/01/23 00:13:13;;;;;;;;;;;;;;;;;;5077225;28;20313;-68
2021/01/23 00:15:39;;;;;;;;;;;;;;;;;;5075805;28;19925;-65
2021/01/23 00:18:06;;;;;;;;;;;;;;;;;;5069907;28;20027;-65
2021/01/23 00:20:32;;;;;;;;;;;;;;;;;;5074265;28;20380;-65
2021/01/23 00:22:59;;;;;;;;;;;;;;;;;;5079289;28;19924;-65
2021/01/23 00:25:25;;;;;;;;;;;;;;;;;;5071503;28;20355;-66
2021/01/23 00:27:52;;;;;;;;;;;;;;;;;;5077626;28;19930;-65
2021/01/23 00:30:18;;;;;;;;;;;;;;;;;;5079044;28;20479;-66
2021/01/23 00:32:45;;;;;;;;;;;;;;;;;;5073782;28;19925;-67
2021/01/23 00:35:11;;;;;;;;;;;;;;;;;;5079387;28;20386;-67
2021/01/23 00:37:38;;;;;;;;;;;;;;;;;;5078255;28;19924;-65
2021/01/23 00:40:04;;;;;;;;;;;;;;;;;;5082060;28;20284;-66
2021/01/23 00:42:31;;;;;;;;;;;;;;;;;;5076048;28;20023;-67
2021/01/23 00:44:57;;;;;;;;;;;;;;;;;;5072249;28;20355;-68
2021/01/23 00:47:24;;;;;;;;;;;;;;;;;;5095974;22;20024;-65
2021/01/23 00:49:50;;;;;;;;;;;;;;;;;;5101259;28;20350;-65
2021/01/23 00:52:17;;;;;;;;;;;;;;;;;;5102758;28;19924;-65
2021/01/23 00:54:43;;;;;;;;;;;;;;;;;;5096417;28;20010;-65
2021/01/23 00:57:10;;;;;;;;;;;;;;;;;;5104348;28;19924;-64
2021/01/23 00:59:36;;;;;;;;;;;;;;;;;;5102478;28;19935;-64
2021/01/23 01:02:03;;;;;;;;;;;;;;;;;;5106172;28;19924;-65
2021/01/23 01:04:29;;;;;;;;;;;;;;;;;;5099078;28;20023;-64
2021/01/23 01:06:56;;;;;;;;;;;;;;;;;;5103799;27;20022;-64
2021/01/23 01:09:22;;;;;;;;;;;;;;;;;;5104323;28;19924;-64
2021/01/23 01:11:49;;;;;;;;;;;;;;;;;;5103367;28;19932;-64
2021/01/23 01:14:15;;;;;;;;;;;;;;;;;;5094403;28;19924;-64
2021/01/23 01:16:42;;;;;;;;;;;;;;;;;;5103945;28;19924;-65
2021/01/23 01:19:08;;;;;;;;;;;;;;;;;;5098612;28;19963;-64
2021/01/23 01:21:35;;;;;;;;;;;;;;;;;;5098469;28;19931;-64
2021/01/23 01:24:01;;;;;;;;;;;;;;;;;;5100165;28;19924;-64
2021/01/23 01:26:28;;;;;;;;;;;;;;;;;;5102814;28;20015;-64
2021/01/23 01:28:54;;;;;;;;;;;;;;;;;;5099759;28;19923;-64
2021/01/23 01:31:21;;;;;;;;;;;;;;;;;;5101652;28;20348;-64
2021/01/23 01:33:47;;;;;;;;;;;;;;;;;;5105461;27;19931;-65
2021/01/23 01:36:14;;;;;;;;;;;;;;;;;;5093802;28;19967;-64
2021/01/23 01:38:40;;;;;;;;;;;;;;;;;;5101084;28;19930;-65
2021/01/23 01:41:07;;;;;;;;;;;;;;;;;;5105059;28;19924;-64
2021/01/23 01:43:33;;;;;;;;;;;;;;;;;;5094258;28;19924;-65
2021/01/23 01:46:00;;;;;;;;;;;;;;;;;;5107211;28;19924;-64
2021/01/23 01:48:26;;;;;;;;;;;;;;;;;;5095521;28;20519;-64
2021/01/23 01:50:53;;;;;;;;;;;;;;;;;;5085292;28;19928;-65
2021/01/23 01:53:21;;;;;;;;;;;;;;;;;;5095189;28;19924;-64
2021/01/23 01:55:48;;;;;;;;;;;;;;;;;;5096426;28;19955;-64
2021/01/23 01:58:14;;;;;;;;;;;;;;;;;;5090332;28;19992;-64
2021/01/23 02:00:41;;;;;;;;;;;;;;;;;;5081790;28;19966;-64
2021/01/23 02:03:07;;;;;;;;;;;;;;;;;;5102123;28;19930;-64
2021/01/23 02:05:34;;;;;;;;;;;;;;;;;;5101705;28;19924;-65
2021/01/23 02:08:00;;;;;;;;;;;;;;;;;;5109431;28;20283;-64
2021/01/23 02:10:27;;;;;;;;;;;;;;;;;;5099692;28;19924;-64
2021/01/23 02:12:53;;;;;;;;;;;;;;;;;;5086476;28;20398;-65
2021/01/23 02:15:20;;;;;;;;;;;;;;;;;;5093717;28;19931;-65
2021/01/23 02:17:46;;;;;;;;;;;;;;;;;;5085292;28;20320;-65
2021/01/23 02:20:12;;;;;;;;;;;;;;;;;;5104157;28;19930;-65
2021/01/23 02:22:39;;;;;;;;;;;;;;;;;;5094638;28;20388;-65
2021/01/23 02:25:05;;;;;;;;;;;;;;;;;;5098311;28;19976;-65
2021/01/23 02:27:32;;;;;;;;;;;;;;;;;;5109081;28;19924;-64
2021/01/23 02:29:58;;;;;;;;;;;;;;;;;;5101225;27;19924;-64
2021/01/23 02:32:27;;;;;;;;;;;;;;;;;;5105216;27;20023;-64
2021/01/23 02:34:56;;;;;;;;;;;;;;;;;;5103397;28;20014;-65
2021/01/23 02:37:22;;;;;;;;;;;;;;;;;;5094952;28;19931;-64
2021/01/23 02:39:49;;;;;;;;;;;;;;;;;;5096651;28;19934;-64
2021/01/23 02:42:15;;;;;;;;;;;;;;;;;;5092062;28;20653;-64
2021/01/23 02:44:42;;;;;;;;;;;;;;;;;;5084376;28;19931;-65
2021/01/23 02:47:08;;;;;;;;;;;;;;;;;;5096905;28;20284;-64
2021/01/23 02:49:35;;;;;;;;;;;;;;;;;;5105994;28;19938;-64
2021/01/23 02:52:01;;;;;;;;;;;;;;;;;;5093960;27;20403;-65
2021/01/23 02:54:28;;;;;;;;;;;;;;;;;;5095860;28;19924;-65
2021/01/23 02:56:54;;;;;;;;;;;;;;;;;;5094042;28;19924;-64
2021/01/23 02:59:21;;;;;;;;;;;;;;;;;;5088205;28;19928;-65
2021/01/23 03:01:47;;;;;;;;;;;;;;;;;;5095423;28;19931;-65
2021/01/23 03:04:13;;;;;;;;;;;;;;;;;;5094136;28;20014;-65
2021/01/23 03:06:40;;;;;;;;;;;;;;;;;;5094188;28;19928;-65
2021/01/23 03:09:06;;;;;;;;;;;;;;;;;;5096021;28;19976;-65
2021/01/23 03:11:33;;;;;;;;;;;;;;;;;;5101379;28;19924;-63
2021/01/23 03:13:59;;;;;;;;;;;;;;;;;;5101022;28;20387;-64
2021/01/23 03:16:26;;;;;;;;;;;;;;;;;;5099424;28;19924;-65
2021/01/23 03:18:52;;;;;;;;;;;;;;;;;;5092341;28;20072;-64
2021/01/23 03:21:19;;;;;;;;;;;;;;;;;;5096104;28;20132;-63
2021/01/23 03:23:45;;;;;;;;;;;;;;;;;;5097580;28;20421;-64
2021/01/23 03:26:12;;;;;;;;;;;;;;;;;;5098391;28;19924;-65
2021/01/23 03:28:38;;;;;;;;;;;;;;;;;;5098768;28;19969;-64
2021/01/23 03:31:05;;;;;;;;;;;;;;;;;;5105972;28;19934;-65
2021/01/23 03:33:31;;;;;;;;;;;;;;;;;;5098970;28;19931;-65
2021/01/23 03:35:58;;;;;;;;;;;;;;;;;;5094553;28;19924;-64
2021/01/23 03:38:24;;;;;;;;;;;;;;;;;;5101628;28;19924;-65
2021/01/23 03:40:51;;;;;;;;;;;;;;;;;;5094088;28;19925;-65
2021/01/23 03:43:17;;;;;;;;;;;;;;;;;;5102564;28;19931;-65
2021/01/23 03:45:44;;;;;;;;;;;;;;;;;;5094662;28;19924;-65
2021/01/23 03:48:10;;;;;;;;;;;;;;;;;;5096682;28;19924;-64
2021/01/23 03:50:37;;;;;;;;;;;;;;;;;;5097042;28;20335;-65
2021/01/23 03:53:03;;;;;;;;;;;;;;;;;;5102432;28;19930;-65
2021/01/23 03:55:30;;;;;;;;;;;;;;;;;;5094527;28;19924;-64
2021/01/23 03:57:56;;;;;;;;;;;;;;;;;;5100345;28;20287;-64
2021/01/23 04:00:22;;;;;;;;;;;;;;;;;;5098656;28;19928;-65
2021/01/23 04:02:49;;;;;;;;;;;;;;;;;;5099421;28;19923;-65
2021/01/23 04:05:15;;;;;;;;;;;;;;;;;;5097559;28;19934;-64
2021/01/23 04:07:42;;;;;;;;;;;;;;;;;;5099379;28;19924;-64
2021/01/23 04:10:08;;;;;;;;;;;;;;;;;;5095303;28;20296;-64
2021/01/23 04:12:35;;;;;;;;;;;;;;;;;;5092899;28;19924;-65
2021/01/23 04:15:01;;;;;;;;;;;;;;;;;;5102109;28;19924;-64
2021/01/23 04:17:28;;;;;;;;;;;;;;;;;;5100793;28;19932;-65
2021/01/23 04:19:54;;;;;;;;;;;;;;;;;;5100100;28;20342;-65
2021/01/23 04:22:21;;;;;;;;;;;;;;;;;;5103579;28;19924;-64
2021/01/23 04:24:47;;;;;;;;;;;;;;;;;;5093674;28;20375;-64
2021/01/23 04:27:14;;;;;;;;;;;;;;;;;;5092673;28;19931;-65
2021/01/23 04:29:40;;;;;;;;;;;;;;;;;;5103569;28;19924;-64
2021/01/23 04:32:07;;;;;;;;;;;;;;;;;;5100765;28;20353;-64
2021/01/23 04:34:34;;;;;;;;;;;;;;;;;;5093257;28;20384;-64
2021/01/23 04:37:00;;;;;;;;;;;;;;;;;;5092732;28;19931;-65
2021/01/23 04:39:27;;;;;;;;;;;;;;;;;;5092706;28;19924;-64
2021/01/23 04:41:53;;;;;;;;;;;;;;;;;;5092094;28;19924;-64
2021/01/23 04:44:20;;;;;;;;;;;;;;;;;;5094881;28;19924;-65
2021/01/23 04:46:46;;;;;;;;;;;;;;;;;;5094313;28;19924;-64
2021/01/23 04:49:13;;;;;;;;;;;;;;;;;;5093630;28;20408;-65
2021/01/23 04:51:39;;;;;;;;;;;;;;;;;;5094634;28;19946;-65
2021/01/23 04:54:06;;;;;;;;;;;;;;;;;;5097157;28;19928;-64
2021/01/23 04:56:32;;;;;;;;;;;;;;;;;;5103293;28;19977;-67
2021/01/23 04:58:59;;;;;;;;;;;;;;;;;;5097093;28;19924;-65
2021/01/23 05:01:25;;;;;;;;;;;;;;;;;;5095692;28;19938;-64
2021/01/23 05:03:51;;;;;;;;;;;;;;;;;;5103768;28;19924;-64
2021/01/23 05:06:18;;;;;;;;;;;;;;;;;;5102401;28;19924;-65
2021/01/23 05:08:44;;;;;;;;;;;;;;;;;;5106154;28;19928;-65
2021/01/23 05:11:11;;;;;;;;;;;;;;;;;;5108354;28;19924;-65
2021/01/23 05:13:37;;;;;;;;;;;;;;;;;;5110873;28;19924;-64
2021/01/23 05:16:04;;;;;;;;;;;;;;;;;;5102140;28;19959;-65
2021/01/23 05:18:30;;;;;;;;;;;;;;;;;;5099330;28;19932;-64
2021/01/23 05:20:57;;;;;;;;;;;;;;;;;;5102911;28;19947;-64
2021/01/23 05:23:23;;;;;;;;;;;;;;;;;;5104346;28;20376;-64
2021/01/23 05:25:50;;;;;;;;;;;;;;;;;;5096540;28;19930;-64
2021/01/23 05:28:16;;;;;;;;;;;;;;;;;;5109623;28;20353;-64
2021/01/23 05:30:43;;;;;;;;;;;;;;;;;;5101811;28;19924;-65
2021/01/23 05:33:09;;;;;;;;;;;;;;;;;;5101352;28;19924;-64
2021/01/23 05:35:36;;;;;;;;;;;;;;;;;;5101782;28;20046;-65
2021/01/23 05:38:02;;;;;;;;;;;;;;;;;;5105513;28;19924;-64
2021/01/23 05:40:29;;;;;;;;;;;;;;;;;;5092213;28;19930;-64
2021/01/23 05:42:55;;;;;;;;;;;;;;;;;;5105427;28;20023;-64
2021/01/23 05:45:22;;;;;;;;;;;;;;;;;;5103456;28;19968;-64
2021/01/23 05:47:48;;;;;;;;;;;;;;;;;;5099781;28;20399;-64
2021/01/23 05:50:15;;;;;;;;;;;;;;;;;;5089311;28;19932;-65
2021/01/23 05:52:41;;;;;;;;;;;;;;;;;;5100522;28;19924;-64
2021/01/23 05:55:10;;;;;;;;;;;;;;;;;;5100259;28;20324;-65
2021/01/23 05:57:37;;;;;;;;;;;;;;;;;;5099120;28;19924;-65
2021/01/23 06:00:04;;;;;;;;;;;;;;;;;;5094923;28;19959;-64
2021/01/23 06:02:30;;;;;;;;;;;;;;;;;;5102174;28;19928;-64
2021/01/23 06:04:57;;;;;;;;;;;;;;;;;;5102971;28;19930;-64
2021/01/23 06:07:23;;;;;;;;;;;;;;;;;;5099005;28;20345;-65
2021/01/23 06:09:50;;;;;;;;;;;;;;;;;;5107316;28;20303;-66
2021/01/23 06:12:17;;;;;;;;;;;;;;;;;;5102810;28;19945;-64
2021/01/23 06:14:43;;;;;;;;;;;;;;;;;;5103625;28;19930;-65
2021/01/23 06:17:10;;;;;;;;;;;;;;;;;;5098237;28;19931;-64
2021/01/23 06:19:36;;;;;;;;;;;;;;;;;;5108667;28;19924;-64
2021/01/23 06:22:03;;;;;;;;;;;;;;;;;;5105066;28;19924;-65
2021/01/23 06:24:29;;;;;;;;;;;;;;;;;;5095983;28;20439;-65
2021/01/23 06:26:56;;;;;;;;;;;;;;;;;;5102578;28;19930;-64
2021/01/23 06:29:22;;;;;;;;;;;;;;;;;;5100844;28;19932;-64
2021/01/23 06:31:49;;;;;;;;;;;;;;;;;;5095069;28;19924;-64
2021/01/23 06:34:15;;;;;;;;;;;;;;;;;;5094994;28;20018;-64
2021/01/23 06:36:42;;;;;;;;;;;;;;;;;;5092432;28;20457;-65
2021/01/23 06:39:08;;;;;;;;;;;;;;;;;;5096275;28;19924;-65
2021/01/23 06:41:35;;;;;;;;;;;;;;;;;;5088490;28;19935;-65
2021/01/23 06:44:01;;;;;;;;;;;;;;;;;;5090030;28;19935;-64
2021/01/23 06:46:28;;;;;;;;;;;;;;;;;;5093754;28;20398;-65
2021/01/23 06:48:54;;;;;;;;;;;;;;;;;;5084983;28;19925;-66
2021/01/23 06:51:21;;;;;;;;;;;;;;;;;;5092386;28;19928;-64
2021/01/23 06:53:47;;;;;;;;;;;;;;;;;;5099781;28;20288;-64
2021/01/23 06:56:14;;;;;;;;;;;;;;;;;;5100617;28;19924;-65
2021/01/23 06:58:43;;;;;;;;;;;;;;;;;;5085944;28;19954;-65
2021/01/23 07:01:10;;;;;;;;;;;;;;;;;;5089078;28;19983;-65
2021/01/23 07:03:38;;;;;;;;;;;;;;;;;;5085937;28;19931;-65
2021/01/23 07:06:04;;;;;;;;;;;;;;;;;;5101329;28;20307;-65
2021/01/23 07:08:31;;;;;;;;;;;;;;;;;;5096278;28;20009;-65
2021/01/23 07:10:57;;;;;;;;;;;;;;;;;;5098935;28;20014;-65
2021/01/23 07:13:24;;;;;;;;;;;;;;;;;;5098958;28;19953;-66
2021/01/23 07:15:50;;;;;;;;;;;;;;;;;;5084427;28;19924;-64
2021/01/23 07:18:17;;;;;;;;;;;;;;;;;;5094471;28;19924;-65
2021/01/23 07:20:43;;;;;;;;;;;;;;;;;;5096209;28;19924;-65
2021/01/23 07:23:09;;;;;;;;;;;;;;;;;;5095435;28;19969;-65
2021/01/23 07:25:36;;;;;;;;;;;;;;;;;;5099490;28;20380;-65
2021/01/23 07:28:02;;;;;;;;;;;;;;;;;;5097015;28;19923;-66
2021/01/23 07:30:29;;;;;;;;;;;;;;;;;;5104533;28;19930;-65
2021/01/23 07:32:55;;;;;;;;;;;;;;;;;;5096727;28;19928;-70
2021/01/23 07:35:22;;;;;;;;;;;;;;;;;;5111568;28;20350;-65
2021/01/23 07:37:48;;;;;;;;;;;;;;;;;;5093281;28;19932;-65
2021/01/23 07:40:15;;;;;;;;;;;;;;;;;;5094596;28;19985;-66
2021/01/23 07:42:41;;;;;;;;;;;;;;;;;;5101050;28;19990;-67
2021/01/23 07:45:08;;;;;;;;;;;;;;;;;;5098529;28;19924;-66
2021/01/23 07:47:34;;;;;;;;;;;;;;;;;;5102652;28;19924;-70
2021/01/23 07:50:01;;;;;;;;;;;;;;;;;;5105392;28;19924;-67
2021/01/23 07:52:27;;;;;;;;;;;;;;;;;;5101938;28;20018;-66
2021/01/23 07:54:54;;;;;;;;;;;;;;;;;;5097194;28;19932;-66
2021/01/23 07:57:20;;;;;;;;;;;;;;;;;;5096077;28;19924;-67
2021/01/23 07:59:47;;;;;;;;;;;;;;;;;;5102195;28;19924;-65
2021/01/23 08:02:13;;;;;;;;;;;;;;;;;;5101865;28;19923;-66
2021/01/23 08:04:40;;;;;;;;;;;;;;;;;;5095740;28;19954;-67
2021/01/23 08:07:06;;;;;;;;;;;;;;;;;;5094301;28;19925;-66
2021/01/23 08:09:33;;;;;;;;;;;;;;;;;;5101376;28;20020;-66
2021/01/23 08:11:59;;;;;;;;;;;;;;;;;;5102024;28;19924;-66
2021/01/23 08:14:26;;;;;;;;;;;;;;;;;;5100669;28;19928;-66
2021/01/23 08:16:52;;;;;;;;;;;;;;;;;;5094855;28;20432;-67
2021/01/23 08:19:19;;;;;;;;;;;;;;;;;;5091645;28;19953;-65
2021/01/23 08:21:46;;;;;;;;;;;;;;;;;;5096591;28;19928;-66
2021/01/23 08:24:12;;;;;;;;;;;;;;;;;;5100620;28;20015;-66
2021/01/23 08:26:39;;;;;;;;;;;;;;;;;;5098450;28;19977;-66
2021/01/23 08:29:05;;;;;;;;;;;;;;;;;;5098198;28;20474;-69
2021/01/23 08:31:32;;;;;;;;;;;;;;;;;;5093797;28;19939;-67
2021/01/23 08:33:58;;;;;;;;;;;;;;;;;;5103830;28;20260;-66
2021/01/23 08:36:25;;;;;;;;;;;;;;;;;;5103152;28;19932;-66
2021/01/23 08:38:51;;;;;;;;;;;;;;;;;;5099925;28;19946;-66
2021/01/23 08:41:18;;;;;;;;;;;;;;;;;;5092050;28;19930;-66
2021/01/23 08:43:44;;;;;;;;;;;;;;;;;;5097547;28;20404;-66
2021/01/23 08:46:11;;;;;;;;;;;;;;;;;;5100887;28;19932;-67
2021/01/23 08:48:37;;;;;;;;;;;;;;;;;;5100559;28;19938;-67
2021/01/23 08:51:04;;;;;;;;;;;;;;;;;;5101213;28;20004;-66
2021/01/23 08:53:30;;;;;;;;;;;;;;;;;;5096985;28;20003;-68
2021/01/23 08:55:57;;;;;;;;;;;;;;;;;;5096093;28;20369;-67
2021/01/23 08:58:23;;;;;;;;;;;;;;;;;;5098845;28;19928;-67
2021/01/23 09:00:50;;;;;;;;;;;;;;;;;;5095391;28;19924;-66
2021/01/23 09:03:16;;;;;;;;;;;;;;;;;;5102084;28;19923;-66
2021/01/23 09:05:43;;;;;;;;;;;;;;;;;;5096205;28;20058;-66
2021/01/23 09:08:09;;;;;;;;;;;;;;;;;;5100531;28;19924;-66
2021/01/23 09:10:36;;;;;;;;;;;;;;;;;;5093975;28;19932;-66
2021/01/23 09:13:03;;;;;;;;;;;;;;;;;;5100707;28;19930;-68
2021/01/23 09:15:29;;;;;;;;;;;;;;;;;;5098647;28;19969;-65
2021/01/23 09:17:56;;;;;;;;;;;;;;;;;;5096104;28;19963;-67
2021/01/23 09:20:22;;;;;;;;;;;;;;;;;;5097034;28;19932;-68
2021/01/23 09:22:49;;;;;;;;;;;;;;;;;;5093325;28;19932;-66
2021/01/23 09:25:15;;;;;;;;;;;;;;;;;;5088604;28;19935;-66
2021/01/23 09:27:42;;;;;;;;;;;;;;;;;;5096726;28;20388;-66
2021/01/23 09:30:08;;;;;;;;;;;;;;;;;;5096664;28;19932;-66
2021/01/23 09:32:35;;;;;;;;;;;;;;;;;;5099615;28;20019;-66
2021/01/23 09:35:01;;;;;;;;;;;;;;;;;;5096622;28;19924;-66
2021/01/23 09:37:27;;;;;;;;;;;;;;;;;;5099261;28;19924;-66
2021/01/23 09:39:54;;;;;;;;;;;;;;;;;;5093430;28;19977;-66
2021/01/23 09:42:20;;;;;;;;;;;;;;;;;;5094832;28;19925;-65
2021/01/23 09:44:47;;;;;;;;;;;;;;;;;;5099077;28;19930;-65
2021/01/23 09:47:14;;;;;;;;;;;;;;;;;;5096952;28;19931;-65
2021/01/23 09:49:41;;;;;;;;;;;;;;;;;;5099636;28;19931;-65
2021/01/23 09:52:07;;;;;;;;;;;;;;;;;;5095793;28;19946;-66
2021/01/23 09:54:34;;;;;;;;;;;;;;;;;;5099335;28;19930;-65
2021/01/23 09:57:00;;;;;;;;;;;;;;;;;;5101559;28;20295;-65
2021/01/23 09:59:27;;;;;;;;;;;;;;;;;;5095612;28;19923;-65
2021/01/23 10:01:53;;;;;;;;;;;;;;;;;;5092859;28;19946;-65
2021/01/23 10:04:20;;;;;;;;;;;;;;;;;;5093745;28;19924;-65
2021/01/23 10:06:46;;;;;;;;;;;;;;;;;;5093511;28;20340;-65
2021/01/23 10:09:12;;;;;;;;;;;;;;;;;;5104689;28;19981;-65
2021/01/23 10:11:39;;;;;;;;;;;;;;;;;;5098487;28;19923;-65
2021/01/23 10:14:05;;;;;;;;;;;;;;;;;;5097473;28;19939;-65
2021/01/23 10:16:32;;;;;;;;;;;;;;;;;;5102146;28;20422;-65
2021/01/23 10:18:59;;;;;;;;;;;;;;;;;;5092520;28;19924;-65
2021/01/23 10:21:25;;;;;;;;;;;;;;;;;;5093976;28;19931;-66
2021/01/23 10:23:52;;;;;;;;;;;;;;;;;;5096802;28;19924;-65
2021/01/23 10:26:18;;;;;;;;;;;;;;;;;;5093217;28;19980;-65
2021/01/23 10:28:45;;;;;;;;;;;;;;;;;;5093964;28;20376;-65
2021/01/23 10:31:11;;;;;;;;;;;;;;;;;;5094847;28;20937;-65
2021/01/23 10:33:37;;;;;;;;;;;;;;;;;;5087094;28;19925;-65
2021/01/23 10:36:04;;;;;;;;;;;;;;;;;;5096867;28;19932;-65
2021/01/23 10:38:30;;;;;;;;;;;;;;;;;;5087087;28;20287;-66
2021/01/23 10:40:57;;;;;;;;;;;;;;;;;;5088158;28;20372;-65
2021/01/23 10:43:23;;;;;;;;;;;;;;;;;;5088850;28;20395;-65
2021/01/23 10:45:50;;;;;;;;;;;;;;;;;;5091718;28;20027;-65
2021/01/23 10:48:16;;;;;;;;;;;;;;;;;;5088434;28;19928;-65
2021/01/23 10:50:43;;;;;;;;;;;;;;;;;;5089699;28;21434;-66
2021/01/23 10:53:09;;;;;;;;;;;;;;;;;;5090274;28;20009;-66
2021/01/23 10:55:37;;;;;;;;;;;;;;;;;;5088241;28;20272;-65
2021/01/23 10:58:04;;;;;;;;;;;;;;;;;;5088375;28;20383;-65
2021/01/23 11:00:30;;;;;;;;;;;;;;;;;;5086457;28;20345;-65
2021/01/23 11:02:57;;;;;;;;;;;;;;;;;;5090008;28;19968;-66
2021/01/23 11:05:23;;;;;;;;;;;;;;;;;;5089633;28;19928;-66
2021/01/23 11:07:49;;;;;;;;;;;;;;;;;;5089409;28;19924;-66
2021/01/23 11:10:16;;;;;;;;;;;;;;;;;;5087849;28;20041;-67
2021/01/23 11:12:42;;;;;;;;;;;;;;;;;;5095108;28;20040;-66
2021/01/23 11:15:09;;;;;;;;;;;;;;;;;;5097498;28;20019;-66
2021/01/23 11:17:38;;;;;;;;;;;;;;;;;;5089417;28;20030;-66
2021/01/23 11:20:04;;;;;;;;;;;;;;;;;;5086581;28;19977;-66
2021/01/23 11:22:31;;;;;;;;;;;;;;;;;;5086048;28;19935;-68
2021/01/23 11:24:57;;;;;;;;;;;;;;;;;;5089711;28;20007;-66
2021/01/23 11:27:24;;;;;;;;;;;;;;;;;;5083950;28;20363;-66
2021/01/23 11:29:50;;;;;;;;;;;;;;;;;;5087274;28;19946;-66
2021/01/23 11:32:17;;;;;;;;;;;;;;;;;;5086969;28;20015;-69
2021/01/23 11:34:43;;;;;;;;;;;;;;;;;;5089397;28;19924;-66
2021/01/23 11:37:10;;;;;;;;;;;;;;;;;;5088655;28;19934;-65
2021/01/23 11:39:36;;;;;;;;;;;;;;;;;;5091621;28;19967;-66
2021/01/23 11:42:03;;;;;;;;;;;;;;;;;;5085024;28;19970;-65
2021/01/23 11:44:29;;;;;;;;;;;;;;;;;;5087496;28;20007;-65
2021/01/23 11:46:56;;;;;;;;;;;;;;;;;;5089540;28;20312;-65
2021/01/23 11:49:22;;;;;;;;;;;;;;;;;;5090143;28;19924;-66
2021/01/23 11:51:49;;;;;;;;;;;;;;;;;;5089752;28;19960;-67
2021/01/23 11:54:17;;;;;;;;;;;;;;;;;;5081156;28;19928;-66
2021/01/23 11:56:43;;;;;;;;;;;;;;;;;;5090821;28;20395;-66
2021/01/23 11:59:10;;;;;;;;;;;;;;;;;;5090007;28;19928;-66
2021/01/23 12:01:36;;;;;;;;;;;;;;;;;;5089654;28;20018;-66
2021/01/23 12:04:05;;;;;;;;;;;;;;;;;;5079946;28;19924;-66
2021/01/23 12:06:31;;;;;;;;;;;;;;;;;;5082249;28;19932;-66
2021/01/23 12:08:58;;;;;;;;;;;;;;;;;;5090058;28;20330;-66
2021/01/23 12:11:24;;;;;;;;;;;;;;;;;;5086610;28;19979;-66
2021/01/23 12:13:51;;;;;;;;;;;;;;;;;;5088897;28;20015;-66
2021/01/23 12:16:17;;;;;;;;;;;;;;;;;;5094872;28;19931;-66
2021/01/23 12:18:44;;;;;;;;;;;;;;;;;;5091483;28;20332;-66
2021/01/23 12:21:11;;;;;;;;;;;;;;;;;;5091362;28;20162;-71
2021/01/23 12:23:38;;;;;;;;;;;;;;;;;;5089641;28;19936;-66
2021/01/23 12:26:04;;;;;;;;;;;;;;;;;;5092755;28;19938;-66
2021/01/23 12:28:31;;;;;;;;;;;;;;;;;;5094986;28;19975;-66
2021/01/23 12:30:57;;;;;;;;;;;;;;;;;;5094761;28;20340;-65
2021/01/23 12:33:24;;;;;;;;;;;;;;;;;;5089874;28;19947;-66
2021/01/23 12:35:50;;;;;;;;;;;;;;;;;;5093579;28;19924;-67
2021/01/23 12:38:16;;;;;;;;;;;;;;;;;;5093281;28;19949;-66
2021/01/23 12:40:43;;;;;;;;;;;;;;;;;;5093258;28;20319;-65
2021/01/23 12:43:09;;;;;;;;;;;;;;;;;;5092038;28;19939;-66
2021/01/23 12:45:36;;;;;;;;;;;;;;;;;;5093757;28;19924;-66
2021/01/23 12:48:02;;;;;;;;;;;;;;;;;;5091840;28;19928;-66
2021/01/23 12:50:29;;;;;;;;;;;;;;;;;;5093174;28;19945;-66
2021/01/23 12:52:55;;;;;;;;;;;;;;;;;;5099247;28;19934;-66
2021/01/23 12:55:22;;;;;;;;;;;;;;;;;;5089146;28;19924;-66
2021/01/23 12:57:48;;;;;;;;;;;;;;;;;;5092955;28;20146;-66
2021/01/23 13:00:17;;;;;;;;;;;;;;;;;;5088181;28;19928;-67
2021/01/23 13:02:43;;;;;;;;;;;;;;;;;;5093163;28;19928;-66
2021/01/23 13:05:13;;;;;;;;;;;;;;;;;;5088480;28;19931;-65
2021/01/23 13:07:39;;;;;;;;;;;;;;;;;;5086000;28;19924;-65
2021/01/23 13:10:06;;;;;;;;;;;;;;;;;;5091336;28;20408;-65
2021/01/23 13:12:32;;;;;;;;;;;;;;;;;;5091094;28;20120;-65
2021/01/23 13:14:59;;;;;;;;;;;;;;;;;;5089883;28;20421;-65
2021/01/23 13:17:25;;;;;;;;;;;;;;;;;;5088022;28;19928;-64
2021/01/23 13:19:53;;;;;;;;;;;;;;;;;;5092767;28;20572;-65
2021/01/23 13:22:22;;;;;;;;;;;;;;;;;;5091992;28;19928;-64
2021/01/23 13:24:48;;;;;;;;;;;;;;;;;;5091904;28;19931;-65
2021/01/23 13:27:17;;;;;;;;;;;;;;;;;;5104385;22;19920;-67
2021/01/23 13:29:43;;;;;;;;;;;;;;;;;;5074624;28;19931;-66
2021/01/23 13:32:10;;;;;;;;;;;;;;;;;;5075326;28;20015;-66
2021/01/23 13:34:36;;;;;;;;;;;;;;;;;;5072526;28;20019;-66
2021/01/23 13:37:03;;;;;;;;;;;;;;;;;;5067292;28;19979;-68
2021/01/23 13:39:29;;;;;;;;;;;;;;;;;;5068555;28;19967;-67
2021/01/23 13:41:56;;;;;;;;;;;;;;;;;;5071291;28;20363;-67
2021/01/23 13:44:22;;;;;;;;;;;;;;;;;;5070087;28;19928;-67
2021/01/23 13:46:49;;;;;;;;;;;;;;;;;;5070871;28;19924;-67
2021/01/23 13:49:15;;;;;;;;;;;;;;;;;;5072394;28;19928;-67
2021/01/23 13:51:42;;;;;;;;;;;;;;;;;;5070907;28;20358;-67
2021/01/23 13:54:08;;;;;;;;;;;;;;;;;;5072308;28;20003;-68
2021/01/23 13:56:35;;;;;;;;;;;;;;;;;;5071257;28;19931;-67
2021/01/23 13:59:02;;;;;;;;;;;;;;;;;;5067170;28;20398;-66
2021/01/23 14:01:28;;;;;;;;;;;;;;;;;;5072758;28;19951;-65
2021/01/23 14:03:55;;;;;;;;;;;;;;;;;;5070462;28;20340;-64
2021/01/23 14:06:21;;;;;;;;;;;;;;;;;;5071927;28;21078;-64
2021/01/23 14:08:48;;;;;;;;;;;;;;;;;;5071017;28;20285;-64
2021/01/23 14:11:14;;;;;;;;;;;;;;;;;;5071485;28;20019;-65
2021/01/23 14:13:41;;;;;;;;;;;;;;;;;;5071675;28;19924;-65
2021/01/23 14:16:07;;;;;;;;;;;;;;;;;;5070609;28;19924;-65
2021/01/23 14:18:34;;;;;;;;;;;;;;;;;;5069576;28;20020;-65
2021/01/23 14:21:00;;;;;;;;;;;;;;;;;;5070610;28;19982;-67
2021/01/23 14:23:27;;;;;;;;;;;;;;;;;;5073539;28;19974;-67
2021/01/23 14:25:53;;;;;;;;;;;;;;;;;;5073237;28;19930;-67
2021/01/23 14:28:20;;;;;;;;;;;;;;;;;;5070402;28;20407;-68
2021/01/23 14:30:46;;;;;;;;;;;;;;;;;;5072469;28;20376;-66
2021/01/23 14:33:13;;;;;;;;;;;;;;;;;;5070374;28;19977;-67
2021/01/23 14:35:39;;;;;;;;;;;;;;;;;;5072958;28;20009;-68
2021/01/23 14:38:06;;;;;;;;;;;;;;;;;;5070417;28;19930;-68
2021/01/23 14:40:32;;;;;;;;;;;;;;;;;;5072255;28;19936;-67
2021/01/23 14:42:59;;;;;;;;;;;;;;;;;;5072587;28;20384;-69
2021/01/23 14:45:25;;;;;;;;;;;;;;;;;;5065437;28;19924;-67
2021/01/23 14:47:52;;;;;;;;;;;;;;;;;;5068051;28;20354;-67
2021/01/23 14:50:18;;;;;;;;;;;;;;;;;;5068169;28;20019;-67
2021/01/23 14:52:45;;;;;;;;;;;;;;;;;;5070597;28;20020;-67
2021/01/23 14:55:11;;;;;;;;;;;;;;;;;;5071276;28;19924;-68
2021/01/23 14:57:38;;;;;;;;;;;;;;;;;;5071100;28;19994;-68
2021/01/23 15:00:04;;;;;;;;;;;;;;;;;;5068368;28;19932;-67
2021/01/23 15:02:31;;;;;;;;;;;;;;;;;;5067943;28;19986;-67
2021/01/23 15:04:58;;;;;;;;;;;;;;;;;;5072011;28;19924;-66
2021/01/23 15:07:24;;;;;;;;;;;;;;;;;;5069835;28;20077;-67
2021/01/23 15:09:51;;;;;;;;;;;;;;;;;;5068966;28;20429;-67
2021/01/23 15:12:17;;;;;;;;;;;;;;;;;;5071809;28;20405;-66
2021/01/23 15:14:45;;;;;;;;;;;;;;;;;;5067966;28;20007;-66
2021/01/23 15:17:11;;;;;;;;;;;;;;;;;;5066360;28;19929;-66
2021/01/23 15:19:38;;;;;;;;;;;;;;;;;;5071376;28;19931;-67
2021/01/23 15:22:04;;;;;;;;;;;;;;;;;;5069768;28;19931;-67
2021/01/23 15:24:31;;;;;;;;;;;;;;;;;;5067107;28;19972;-66
2021/01/23 15:26:57;;;;;;;;;;;;;;;;;;5070305;28;19924;-66
2021/01/23 15:29:24;;;;;;;;;;;;;;;;;;5066866;28;20023;-66
2021/01/23 15:31:50;;;;;;;;;;;;;;;;;;5071120;28;19927;-68
2021/01/23 15:34:17;;;;;;;;;;;;;;;;;;5069309;28;19953;-68
2021/01/23 15:36:43;;;;;;;;;;;;;;;;;;5070721;28;19924;-66
2021/01/23 15:39:10;;;;;;;;;;;;;;;;;;5069760;28;20117;-66
2021/01/23 15:41:36;;;;;;;;;;;;;;;;;;5073723;28;19931;-67
2021/01/23 15:44:03;;;;;;;;;;;;;;;;;;5068550;28;19932;-67
2021/01/23 15:46:29;;;;;;;;;;;;;;;;;;5067572;28;19988;-67
2021/01/23 15:48:56;;;;;;;;;;;;;;;;;;5067980;28;20314;-68
2021/01/23 15:51:22;;;;;;;;;;;;;;;;;;5067880;28;19942;-66
2021/01/23 15:53:49;;;;;;;;;;;;;;;;;;5073908;28;19928;-67
2021/01/23 15:56:15;;;;;;;;;;;;;;;;;;5072358;28;19978;-69
2021/01/23 15:58:42;;;;;;;;;;;;;;;;;;5071985;28;19931;-66
2021/01/23 16:01:09;;;;;;;;;;;;;;;;;;5075644;28;20079;-66
2021/01/23 16:03:35;;;;;;;;;;;;;;;;;;5070300;28;19931;-66
2021/01/23 16:06:02;;;;;;;;;;;;;;;;;;5070638;28;20543;-66
2021/01/23 16:08:29;;;;;;;;;;;;;;;;;;5071100;28;20286;-66
2021/01/23 16:10:55;;;;;;;;;;;;;;;;;;5069216;28;20015;-68
2021/01/23 16:13:22;;;;;;;;;;;;;;;;;;5068919;28;19932;-67
2021/01/23 16:15:48;;;;;;;;;;;;;;;;;;5060862;28;20288;-66
2021/01/23 16:18:15;;;;;;;;;;;;;;;;;;5068874;28;20430;-67
2021/01/23 16:20:42;;;;;;;;;;;;;;;;;;5062412;28;19932;-67
2021/01/23 16:23:09;;;;;;;;;;;;;;;;;;5067482;28;19924;-68
2021/01/23 16:25:35;;;;;;;;;;;;;;;;;;5070977;28;19955;-67
2021/01/23 16:28:02;;;;;;;;;;;;;;;;;;5069892;28;19924;-66
2021/01/23 16:30:28;;;;;;;;;;;;;;;;;;5071415;28;19931;-66
2021/01/23 16:32:55;;;;;;;;;;;;;;;;;;5071950;28;20015;-67
2021/01/23 16:35:21;;;;;;;;;;;;;;;;;;5074282;28;19931;-68
2021/01/23 16:37:49;;;;;;;;;;;;;;;;;;5069924;28;20381;-67
2021/01/23 16:40:15;;;;;;;;;;;;;;;;;;5068588;28;19966;-67